createdAt,value
2019-03-26T00:01:29.988Z,96.00
2019-03-26T00:04:05.602Z,96.00
2019-03-26T00:06:24.326Z,96.10
2019-03-26T00:08:50.824Z,96.00
2019-03-26T00:11:19.102Z,95.80
2019-03-26T00:14:04.160Z,95.80
2019-03-26T00:16:35.002Z,95.80
2019-03-26T00:22:01.130Z,96.00
2019-03-26T00:24:34.928Z,96.00
2019-03-26T00:29:54.282Z,96.00
2019-03-26T00:32:28.514Z,96.10
2019-03-26T00:35:04.083Z,96.10
2019-03-26T00:37:42.572Z,96.20
2019-03-26T00:40:22.494Z,96.20
2019-03-26T00:42:56.567Z,96.10
2019-03-26T00:45:31.330Z,96.20
2019-03-26T00:48:05.486Z,96.10
2019-03-26T00:50:37.885Z,95.90
2019-03-26T00:53:14.038Z,95.90
2019-03-26T00:55:41.768Z,96.00
2019-03-26T01:06:41.795Z,96.10
2019-03-26T01:09:08.056Z,96.20
2019-03-26T01:11:35.400Z,96.20
2019-03-26T01:14:07.203Z,96.20
2019-03-26T01:16:33.509Z,96.20
2019-03-26T01:22:19.501Z,96.30
2019-03-26T01:24:39.620Z,96.30
2019-03-26T01:27:23.711Z,96.20
2019-03-26T01:29:53.627Z,96.30
2019-03-26T01:32:27.256Z,96.40
2019-03-26T01:38:06.076Z,96.30
2019-03-26T01:40:54.177Z,96.20
2019-03-26T01:43:21.398Z,96.00
2019-03-26T01:46:01.167Z,96.00
2019-03-26T01:48:33.272Z,96.00
2019-03-26T01:50:59.558Z,96.00
2019-03-26T01:53:37.255Z,95.90
2019-03-26T01:56:13.418Z,95.90
2019-03-26T01:58:45.407Z,95.80
2019-03-26T02:04:41.215Z,95.80
2019-03-26T02:07:07.492Z,95.90
2019-03-26T02:09:40.681Z,95.90
2019-03-26T02:12:15.603Z,96.20
2019-03-26T02:14:41.949Z,96.40
2019-03-26T02:17:35.003Z,96.50
2019-03-26T02:20:20.939Z,96.40
2019-03-26T02:28:39.817Z,96.60
2019-03-26T02:36:48.940Z,96.70
2019-03-26T02:39:23.804Z,96.60
2019-03-26T02:41:49.774Z,96.60
2019-03-26T02:44:19.976Z,96.60
2019-03-26T02:46:53.019Z,96.60
2019-03-26T02:49:41.895Z,96.70
2019-03-26T02:52:18.041Z,96.80
2019-03-26T02:54:44.209Z,96.70
2019-03-26T02:57:11.404Z,96.50
2019-03-26T02:59:54.988Z,96.60
2019-03-26T03:05:40.920Z,96.60
2019-03-26T03:08:28.428Z,96.50
2019-03-26T03:13:43.929Z,96.40
2019-03-26T03:16:17.316Z,96.50
2019-03-26T03:21:56.060Z,96.50
2019-03-26T03:34:09.730Z,96.60
2019-03-26T03:35:51.858Z,96.60
2019-03-26T03:41:05.840Z,96.60
2019-03-26T03:43:34.214Z,96.40
2019-03-26T03:52:05.513Z,96.30
2019-03-26T03:54:45.224Z,96.30
2019-03-26T03:59:54.770Z,96.30
2019-03-26T04:08:36.924Z,96.80
2019-03-26T04:11:03.283Z,96.60
2019-03-26T04:16:41.096Z,96.50
2019-03-26T04:19:11.478Z,96.70
2019-03-26T04:21:40.642Z,96.50
2019-03-26T04:24:14.080Z,96.50
2019-03-26T04:26:51.290Z,96.50
2019-03-26T04:32:46.904Z,96.50
2019-03-26T04:35:27.161Z,96.30
2019-03-26T04:41:10.983Z,95.70
2019-03-26T04:43:43.314Z,95.60
2019-03-26T04:46:34.562Z,95.50
2019-03-26T04:48:42.822Z,95.70
2019-03-26T04:51:11.140Z,95.70
2019-03-26T04:53:48.074Z,95.60
2019-03-26T04:56:20.382Z,95.80
2019-03-26T04:59:01.049Z,95.60
2019-03-26T05:01:41.285Z,95.10
2019-03-26T05:04:24.124Z,94.90
2019-03-26T05:06:54.393Z,94.70
2019-03-26T05:09:33.517Z,94.90
2019-03-26T05:12:05.413Z,95.10
2019-03-26T05:14:37.710Z,95.20
2019-03-26T05:17:05.287Z,95.30
2019-03-26T05:22:24.152Z,95.30
2019-03-26T05:27:49.665Z,95.50
2019-03-26T05:30:33.102Z,96.10
2019-03-26T05:36:02.473Z,96.30
2019-03-26T05:41:10.398Z,96.10
2019-03-26T05:43:35.878Z,96.10
2019-03-26T05:48:33.281Z,95.70
2019-03-26T05:51:11.484Z,95.70
2019-03-26T05:53:41.811Z,95.90
2019-03-26T05:56:20.777Z,96.40
2019-03-26T05:58:52.781Z,96.40
2019-03-26T06:01:19.334Z,96.10
2019-03-26T06:03:54.865Z,96.00
2019-03-26T06:06:40.511Z,96.00
2019-03-26T06:09:11.783Z,96.20
2019-03-26T06:14:47.227Z,96.80
2019-03-26T06:17:17.243Z,97.20
2019-03-26T06:22:41.616Z,97.50
2019-03-26T06:25:27.546Z,97.10
2019-03-26T06:28:09.220Z,97.00
2019-03-26T06:30:41.561Z,97.10
2019-03-26T06:33:23.129Z,97.20
2019-03-26T06:38:46.681Z,97.30
2019-03-26T06:41:26.043Z,97.40
2019-03-26T06:44:23.414Z,97.50
2019-03-26T06:49:42.759Z,97.60
2019-03-26T06:52:13.039Z,97.80
2019-03-26T06:54:43.624Z,97.70
2019-03-26T06:59:50.682Z,98.00
2019-03-26T07:02:43.680Z,98.00
2019-03-26T07:05:25.985Z,97.80
2019-03-26T07:07:56.140Z,97.90
2019-03-26T07:10:37.168Z,98.00
2019-03-26T07:13:05.318Z,98.00
2019-03-26T07:15:41.861Z,97.90
2019-03-26T07:18:22.940Z,97.90
2019-03-26T07:20:58.875Z,98.10
2019-03-26T07:23:48.627Z,97.90
2019-03-26T07:26:25.130Z,97.90
2019-03-26T07:29:02.644Z,97.90
2019-03-26T07:31:39.005Z,98.00
2019-03-26T07:34:11.632Z,97.90
2019-03-26T07:36:57.065Z,98.10
2019-03-26T07:39:28.573Z,98.00
2019-03-26T07:44:45.197Z,98.00
2019-03-26T07:47:15.481Z,98.00
2019-03-26T07:49:41.831Z,97.70
2019-03-26T07:52:09.285Z,97.90
2019-03-26T07:54:39.938Z,98.00
2019-03-26T07:57:16.887Z,98.00
2019-03-26T08:02:31.167Z,97.80
2019-03-26T08:05:00.481Z,97.80
2019-03-26T08:07:31.360Z,97.90
2019-03-26T08:10:02.063Z,98.10
2019-03-26T08:12:28.430Z,97.80
2019-03-26T08:15:43.114Z,98.00
2019-03-26T08:17:31.255Z,97.90
2019-03-26T08:20:16.011Z,97.70
2019-03-26T08:22:42.970Z,97.60
2019-03-26T08:30:52.753Z,97.00
2019-03-26T08:36:14.914Z,96.40
2019-03-26T08:38:52.059Z,96.30
2019-03-26T08:44:14.857Z,95.60
2019-03-26T08:46:50.486Z,95.40
2019-03-26T08:49:23.032Z,95.50
2019-03-26T08:51:52.429Z,95.10
2019-03-26T08:54:21.771Z,95.30
2019-03-26T08:56:54.198Z,95.10
2019-03-26T08:59:24.702Z,94.90
2019-03-26T09:01:55.002Z,94.40
2019-03-26T09:04:34.513Z,93.30
2019-03-26T09:09:41.751Z,93.20
2019-03-26T09:12:20.082Z,92.80
2019-03-26T09:15:06.785Z,92.00
2019-03-26T09:17:44.018Z,91.90
2019-03-26T09:23:22.619Z,91.80
2019-03-26T09:25:59.294Z,91.80
2019-03-26T09:34:50.697Z,91.60
2019-03-26T09:37:27.573Z,91.40
2019-03-26T09:39:53.781Z,91.10
2019-03-26T09:42:22.125Z,90.50
2019-03-26T09:45:10.485Z,89.80
2019-03-26T09:47:42.490Z,89.60
2019-03-26T09:50:18.696Z,88.80
2019-03-26T09:52:55.495Z,88.80
2019-03-26T09:55:21.981Z,88.00
2019-03-26T09:57:54.521Z,88.80
2019-03-26T10:00:25.873Z,90.60
2019-03-26T10:02:59.050Z,91.30
2019-03-26T10:05:29.487Z,91.40
2019-03-26T10:08:13.748Z,90.50
2019-03-26T10:10:43.419Z,90.20
2019-03-26T10:13:16.794Z,89.90
2019-03-26T10:15:47.801Z,89.90
2019-03-26T10:21:20.995Z,88.30
2019-03-26T10:23:51.453Z,87.10
2019-03-26T10:26:30.978Z,87.20
2019-03-26T10:29:18.801Z,85.60
2019-03-26T10:31:45.235Z,85.30
2019-03-26T10:36:56.434Z,86.30
2019-03-26T10:39:28.055Z,84.30
2019-03-26T10:41:54.318Z,84.40
2019-03-26T10:44:24.239Z,83.90
2019-03-26T10:47:02.614Z,84.40
2019-03-26T10:49:50.821Z,84.30
2019-03-26T10:55:15.277Z,84.10
2019-03-26T11:00:49.319Z,82.90
2019-03-26T11:03:15.640Z,82.50
2019-03-26T11:05:45.439Z,82.00
2019-03-26T11:08:12.837Z,81.70
2019-03-26T11:10:39.235Z,83.50
2019-03-26T11:13:13.668Z,83.90
2019-03-26T11:15:39.992Z,82.00
2019-03-26T11:18:18.603Z,78.90
2019-03-26T11:20:43.401Z,74.20
2019-03-26T11:28:38.309Z,69.70
2019-03-26T11:31:04.884Z,71.30
2019-03-26T11:33:43.240Z,71.50
2019-03-26T11:36:11.574Z,71.40
2019-03-26T11:38:38.634Z,72.30
2019-03-26T11:41:04.967Z,72.00
2019-03-26T11:43:48.865Z,71.90
2019-03-26T11:47:08.074Z,72.50
2019-03-26T11:48:53.772Z,72.10
2019-03-26T11:51:20.473Z,72.50
2019-03-26T11:53:46.629Z,71.80
2019-03-26T11:56:13.239Z,72.30
2019-03-26T11:58:39.680Z,71.50
2019-03-26T12:01:06.171Z,73.30
2019-03-26T12:03:38.793Z,74.50
2019-03-26T12:06:14.700Z,73.30
2019-03-26T12:08:41.554Z,72.20
2019-03-26T12:11:09.903Z,68.40
2019-03-26T12:13:47.497Z,70.40
2019-03-26T12:16:15.826Z,69.30
2019-03-26T12:18:42.496Z,67.70
2019-03-26T12:21:15.702Z,66.10
2019-03-26T12:23:42.158Z,68.80
2019-03-26T12:26:08.398Z,64.50
2019-03-26T12:28:34.860Z,62.60
2019-03-26T12:31:02.525Z,63.30
2019-03-26T12:33:45.048Z,58.70
2019-03-26T12:36:13.804Z,59.70
2019-03-26T12:38:40.146Z,61.10
2019-03-26T12:41:06.590Z,60.20
2019-03-26T12:43:32.830Z,59.20
2019-03-26T12:46:01.860Z,58.80
2019-03-26T12:48:28.373Z,59.30
2019-03-26T12:50:54.748Z,59.80
2019-03-26T12:53:21.051Z,59.40
2019-03-26T12:55:47.280Z,58.90
2019-03-26T12:58:13.526Z,59.30
2019-03-26T13:00:39.780Z,59.90
2019-03-26T13:03:06.110Z,55.60
2019-03-26T13:05:32.366Z,54.10
2019-03-26T13:07:58.741Z,53.60
2019-03-26T13:10:25.024Z,54.00
2019-03-26T13:13:00.675Z,53.60
2019-03-26T13:15:24.462Z,55.10
2019-03-26T13:17:50.727Z,55.20
2019-03-26T13:20:17.073Z,54.80
2019-03-26T13:22:51.650Z,54.00
2019-03-26T13:25:39.409Z,54.70
2019-03-26T13:27:53.620Z,55.00
2019-03-26T13:33:07.715Z,53.70
2019-03-26T13:35:33.945Z,54.20
2019-03-26T13:38:17.898Z,55.00
2019-03-26T13:40:48.565Z,55.50
2019-03-26T13:43:14.872Z,55.10
2019-03-26T13:45:50.237Z,55.00
2019-03-26T13:48:12.347Z,54.10
2019-03-26T13:50:41.460Z,53.90
2019-03-26T13:53:07.700Z,53.60
2019-03-26T13:55:33.852Z,52.70
2019-03-26T13:58:06.879Z,52.40
2019-03-26T14:00:45.351Z,53.00
2019-03-26T14:03:03.547Z,53.20
2019-03-26T14:05:30.508Z,53.10
2019-03-26T14:07:59.594Z,52.70
2019-03-26T14:10:40.724Z,52.50
2019-03-26T14:13:05.884Z,52.30
2019-03-26T14:15:32.318Z,51.10
2019-03-26T14:17:58.709Z,52.00
2019-03-26T14:20:25.051Z,49.80
2019-03-26T14:22:51.294Z,49.70
2019-03-26T14:25:17.799Z,50.00
2019-03-26T14:27:49.266Z,49.30
2019-03-26T14:30:22.099Z,50.30
2019-03-26T14:32:55.150Z,49.90
2019-03-26T14:35:21.458Z,49.50
2019-03-26T14:37:51.394Z,49.30
2019-03-26T14:40:19.761Z,49.00
2019-03-26T14:42:46.156Z,48.80
2019-03-26T14:45:12.497Z,48.20
2019-03-26T14:47:47.912Z,47.80
2019-03-26T14:50:14.510Z,46.60
2019-03-26T14:52:40.985Z,46.60
2019-03-26T14:55:15.565Z,45.70
2019-03-26T14:57:41.856Z,46.20
2019-03-26T15:00:09.015Z,46.60
2019-03-26T15:02:35.533Z,46.80
2019-03-26T15:05:02.166Z,46.60
2019-03-26T15:07:28.429Z,46.80
2019-03-26T15:09:55.192Z,46.30
2019-03-26T15:12:21.361Z,46.60
2019-03-26T15:14:47.675Z,47.10
2019-03-26T15:17:14.032Z,48.20
2019-03-26T15:19:40.409Z,49.10
2019-03-26T15:22:06.774Z,49.30
2019-03-26T15:24:32.995Z,48.90
2019-03-26T15:26:59.290Z,49.00
2019-03-26T15:29:25.572Z,48.70
2019-03-26T15:31:51.955Z,48.50
2019-03-26T15:34:18.181Z,47.80
2019-03-26T15:36:44.442Z,47.70
2019-03-26T15:39:10.695Z,47.80
2019-03-26T15:41:36.920Z,47.60
2019-03-26T15:44:03.363Z,46.40
2019-03-26T15:46:29.785Z,46.00
2019-03-26T15:48:56.161Z,46.70
2019-03-26T15:51:27.255Z,47.00
2019-03-26T15:53:51.383Z,46.70
2019-03-26T15:56:17.611Z,46.20
2019-03-26T15:58:44.077Z,45.00
2019-03-26T16:01:10.330Z,45.30
2019-03-26T16:03:39.369Z,45.00
2019-03-26T16:06:16.784Z,45.60
2019-03-26T16:08:47.718Z,46.50
2019-03-26T16:11:13.828Z,46.90
2019-03-26T16:13:40.184Z,47.20
2019-03-26T16:16:06.447Z,47.70
2019-03-26T16:18:35.296Z,48.20
2019-03-26T16:21:01.536Z,48.00
2019-03-26T16:23:27.678Z,48.10
2019-03-26T16:25:54.022Z,48.10
2019-03-26T16:31:37.094Z,48.50
2019-03-26T16:34:14.718Z,48.40
2019-03-26T16:36:41.719Z,48.70
2019-03-26T16:39:11.643Z,48.90
2019-03-26T16:41:48.313Z,49.50
2019-03-26T16:44:06.190Z,49.50
2019-03-26T16:46:32.408Z,49.70
2019-03-26T16:49:01.464Z,50.30
2019-03-26T16:51:31.288Z,50.90
2019-03-26T16:53:57.532Z,51.00
2019-03-26T16:56:23.932Z,51.00
2019-03-26T16:58:50.277Z,50.80
2019-03-26T17:01:16.734Z,51.00
2019-03-26T17:03:43.014Z,51.70
2019-03-26T17:06:09.344Z,52.00
2019-03-26T17:08:38.918Z,52.20
2019-03-26T17:11:10.243Z,52.80
2019-03-26T17:13:41.429Z,53.40
2019-03-26T17:16:13.544Z,53.70
2019-03-26T17:18:42.157Z,54.20
2019-03-26T17:21:13.745Z,54.50
2019-03-26T17:23:37.491Z,54.50
2019-03-26T17:26:03.847Z,54.80
2019-03-26T17:28:30.106Z,54.80
2019-03-26T17:30:56.555Z,55.10
2019-03-26T17:36:15.454Z,56.00
2019-03-26T17:38:41.647Z,56.10
2019-03-26T17:41:14.418Z,56.10
2019-03-26T17:43:40.567Z,56.50
2019-03-26T17:46:06.911Z,56.80
2019-03-26T17:48:33.132Z,56.40
2019-03-26T17:50:59.282Z,56.50
2019-03-26T17:53:25.773Z,56.50
2019-03-26T17:55:52.080Z,56.40
2019-03-26T17:58:18.362Z,56.60
2019-03-26T18:00:45.866Z,56.70
2019-03-26T18:03:25.646Z,57.10
2019-03-26T18:05:42.660Z,57.40
2019-03-26T18:08:20.115Z,57.50
2019-03-26T18:10:46.357Z,57.30
2019-03-26T18:13:12.969Z,57.30
2019-03-26T18:15:40.167Z,57.10
2019-03-26T18:18:06.645Z,56.60
2019-03-26T18:20:33.218Z,56.80
2019-03-26T18:22:59.649Z,56.50
2019-03-26T18:25:30.689Z,56.80
2019-03-26T18:28:10.112Z,56.60
2019-03-26T18:30:36.528Z,56.30
2019-03-26T18:33:03.943Z,56.10
2019-03-26T18:35:30.171Z,56.40
2019-03-26T18:37:56.441Z,55.80
2019-03-26T18:40:22.804Z,56.10
2019-03-26T18:42:49.013Z,57.40
2019-03-26T18:45:15.327Z,58.20
2019-03-26T18:47:42.583Z,58.40
2019-03-26T18:50:09.004Z,58.90
2019-03-26T18:52:35.266Z,59.50
2019-03-26T18:55:01.697Z,59.80
2019-03-26T18:57:27.987Z,59.60
2019-03-26T18:59:54.283Z,60.00
2019-03-26T19:02:20.512Z,59.70
2019-03-26T19:04:46.863Z,59.90
2019-03-26T19:07:13.023Z,60.40
2019-03-26T19:09:39.271Z,59.50
2019-03-26T19:12:05.473Z,59.60
2019-03-26T19:14:31.705Z,59.80
2019-03-26T19:16:58.139Z,60.70
2019-03-26T19:19:24.392Z,61.40
2019-03-26T19:21:50.739Z,61.60
2019-03-26T19:24:16.953Z,62.40
2019-03-26T19:26:43.297Z,62.60
2019-03-26T19:29:09.534Z,62.30
2019-03-26T19:31:35.750Z,62.30
2019-03-26T19:34:04.541Z,62.40
2019-03-26T19:36:43.366Z,63.10
2019-03-26T19:39:13.527Z,63.40
2019-03-26T19:41:39.992Z,63.40
2019-03-26T19:44:08.956Z,63.20
2019-03-26T19:46:35.524Z,63.30
2019-03-26T19:49:08.821Z,64.40
2019-03-26T19:51:35.692Z,64.40
2019-03-26T19:54:01.972Z,64.80
2019-03-26T19:56:29.265Z,65.40
2019-03-26T19:58:58.305Z,66.10
2019-03-26T20:01:26.764Z,66.30
2019-03-26T20:03:53.888Z,66.80
2019-03-26T20:06:20.876Z,67.30
2019-03-26T20:08:47.195Z,68.00
2019-03-26T20:11:15.802Z,68.00
2019-03-26T20:13:42.096Z,67.60
2019-03-26T20:16:13.787Z,68.90
2019-03-26T20:18:40.157Z,69.20
2019-03-26T20:21:06.485Z,69.10
2019-03-26T20:23:34.212Z,69.50
2019-03-26T20:26:00.412Z,69.10
2019-03-26T20:28:32.090Z,69.10
2019-03-26T20:31:08.850Z,69.00
2019-03-26T20:33:35.090Z,69.10
2019-03-26T20:36:01.605Z,70.10
2019-03-26T20:38:27.930Z,70.90
2019-03-26T20:40:57.029Z,70.60
2019-03-26T20:43:36.767Z,70.40
2019-03-26T20:45:53.391Z,70.60
2019-03-26T20:48:19.620Z,70.10
2019-03-26T20:50:46.169Z,70.80
2019-03-26T20:53:12.436Z,70.90
2019-03-26T20:55:39.473Z,70.00
2019-03-26T20:58:06.005Z,70.30
2019-03-26T21:00:34.011Z,70.60
2019-03-26T21:03:00.347Z,71.10
2019-03-26T21:05:26.676Z,71.50
2019-03-26T21:07:53.034Z,71.90
2019-03-26T21:10:19.341Z,71.50
2019-03-26T21:12:45.660Z,71.60
2019-03-26T21:15:12.299Z,71.50
2019-03-26T21:17:38.520Z,71.20
2019-03-26T21:20:07.093Z,71.50
2019-03-26T21:22:33.344Z,71.90
2019-03-26T21:24:59.809Z,72.60
2019-03-26T21:27:26.246Z,73.20
2019-03-26T21:29:52.469Z,74.10
2019-03-26T21:32:18.774Z,74.00
2019-03-26T21:34:46.111Z,74.30
2019-03-26T21:37:12.379Z,73.50
2019-03-26T21:39:38.660Z,73.70
2019-03-26T21:42:15.560Z,74.10
2019-03-26T21:44:42.048Z,74.60
2019-03-26T21:47:08.212Z,74.70
2019-03-26T21:49:40.107Z,75.50
2019-03-26T21:52:06.307Z,74.70
2019-03-26T21:54:33.604Z,74.90
2019-03-26T21:56:59.900Z,75.40
2019-03-26T21:59:26.207Z,75.30
2019-03-26T22:01:52.448Z,76.10
2019-03-26T22:04:18.715Z,77.10
2019-03-26T22:06:45.057Z,76.90
2019-03-26T22:09:11.378Z,77.70
2019-03-26T22:11:49.622Z,77.50
2019-03-26T22:14:17.753Z,77.10
2019-03-26T22:16:40.471Z,76.90
2019-03-26T22:19:06.716Z,77.20
2019-03-26T22:21:38.643Z,77.20
2019-03-26T22:24:18.724Z,77.30
2019-03-26T22:26:47.877Z,77.80
2019-03-26T22:29:14.352Z,77.70
2019-03-26T22:31:42.508Z,77.60
2019-03-26T22:34:08.771Z,77.10
2019-03-26T22:36:35.007Z,77.00
2019-03-26T22:39:04.809Z,76.80
2019-03-26T22:41:41.813Z,76.40
2019-03-26T22:44:13.953Z,76.40
2019-03-26T22:46:58.589Z,76.80
2019-03-26T22:49:42.582Z,76.80
2019-03-26T22:52:11.219Z,78.20
2019-03-26T22:54:44.966Z,79.00
2019-03-26T22:57:11.269Z,80.70
2019-03-26T22:59:42.107Z,81.20
2019-03-26T23:05:14.054Z,82.00
2019-03-26T23:07:40.495Z,81.70
2019-03-26T23:10:07.356Z,82.40
2019-03-26T23:12:42.250Z,81.80
2019-03-26T23:15:19.887Z,81.30
2019-03-26T23:17:50.026Z,80.70
2019-03-26T23:23:27.067Z,81.30
2019-03-26T23:25:53.435Z,81.70
2019-03-26T23:28:19.945Z,81.70
2019-03-26T23:30:46.361Z,82.50
2019-03-26T23:33:12.831Z,82.40
2019-03-26T23:35:39.227Z,82.30
2019-03-26T23:38:05.803Z,82.30
2019-03-26T23:40:32.046Z,82.40
2019-03-26T23:42:58.445Z,81.90
2019-03-26T23:45:24.931Z,81.70
2019-03-26T23:47:51.464Z,81.70
2019-03-26T23:50:17.989Z,81.50
2019-03-26T23:52:44.343Z,81.60
2019-03-26T23:55:11.243Z,81.80
2019-03-26T23:57:38.022Z,81.50
